sensor_id;sensor_type;location;lat;lon;timestamp;P1;durP1;ratioP1;P2;durP2;ratioP2
50900;SDS011;36879;51.416;6.678;2023-04-15T00:00:25;15.55;;;6.40;;
50900;SDS011;36879;51.416;6.678;2023-04-15T00:02:52;13.77;;;6.10;;
50900;SDS011;36879;51.416;6.678;2023-04-15T00:05:19;11.20;;;6.13;;
50900;SDS011;36879;51.416;6.678;2023-04-15T00:07:45;11.38;;;6.43;;
50900;SDS011;36879;51.416;6.678;2023-04-15T00:10:11;8.57;;;6.22;;
50900;SDS011;36879;51.416;6.678;2023-04-15T00:12:38;9.55;;;6.20;;
50900;SDS011;36879;51.416;6.678;2023-04-15T00:15:05;9.27;;;6.05;;
50900;SDS011;36879;51.416;6.678;2023-04-15T00:17:32;9.57;;;5.45;;
50900;SDS011;36879;51.416;6.678;2023-04-15T00:19:58;9.52;;;5.70;;
50900;SDS011;36879;51.416;6.678;2023-04-15T00:22:24;12.18;;;6.75;;
50900;SDS011;36879;51.416;6.678;2023-04-15T00:24:51;14.15;;;7.18;;
50900;SDS011;36879;51.416;6.678;2023-04-15T00:27:17;10.90;;;6.05;;
50900;SDS011;36879;51.416;6.678;2023-04-15T00:29:43;11.05;;;6.25;;
50900;SDS011;36879;51.416;6.678;2023-04-15T00:32:09;10.88;;;5.90;;
50900;SDS011;36879;51.416;6.678;2023-04-15T00:34:35;12.57;;;6.75;;
50900;SDS011;36879;51.416;6.678;2023-04-15T00:37:01;16.45;;;7.15;;
50900;SDS011;36879;51.416;6.678;2023-04-15T00:39:27;11.02;;;7.15;;
50900;SDS011;36879;51.416;6.678;2023-04-15T00:41:53;10.30;;;6.10;;
50900;SDS011;36879;51.416;6.678;2023-04-15T00:44:19;13.07;;;7.28;;
50900;SDS011;36879;51.416;6.678;2023-04-15T00:46:46;12.75;;;7.22;;
50900;SDS011;36879;51.416;6.678;2023-04-15T00:49:13;11.35;;;6.57;;
50900;SDS011;36879;51.416;6.678;2023-04-15T00:51:39;12.27;;;7.60;;
50900;SDS011;36879;51.416;6.678;2023-04-15T00:54:05;10.70;;;6.85;;
50900;SDS011;36879;51.416;6.678;2023-04-15T00:56:35;16.63;;;6.47;;
50900;SDS011;36879;51.416;6.678;2023-04-15T00:59:02;13.15;;;6.30;;
50900;SDS011;36879;51.416;6.678;2023-04-15T01:01:28;13.50;;;7.32;;
50900;SDS011;36879;51.416;6.678;2023-04-15T01:03:55;13.25;;;6.07;;
50900;SDS011;36879;51.416;6.678;2023-04-15T01:06:24;10.50;;;6.55;;
50900;SDS011;36879;51.416;6.678;2023-04-15T01:08:51;15.50;;;7.47;;
50900;SDS011;36879;51.416;6.678;2023-04-15T01:11:18;12.45;;;6.55;;
50900;SDS011;36879;51.416;6.678;2023-04-15T01:13:44;11.63;;;7.13;;
50900;SDS011;36879;51.416;6.678;2023-04-15T01:16:11;11.18;;;6.68;;
50900;SDS011;36879;51.416;6.678;2023-04-15T01:18:37;15.75;;;7.93;;
50900;SDS011;36879;51.416;6.678;2023-04-15T01:21:03;12.10;;;8.15;;
50900;SDS011;36879;51.416;6.678;2023-04-15T01:23:29;12.30;;;7.50;;
50900;SDS011;36879;51.416;6.678;2023-04-15T01:25:55;13.43;;;6.95;;
50900;SDS011;36879;51.416;6.678;2023-04-15T01:28:22;15.98;;;8.20;;
50900;SDS011;36879;51.416;6.678;2023-04-15T01:30:48;11.27;;;8.15;;
50900;SDS011;36879;51.416;6.678;2023-04-15T01:33:14;13.60;;;6.95;;
50900;SDS011;36879;51.416;6.678;2023-04-15T01:35:40;15.90;;;8.32;;
50900;SDS011;36879;51.416;6.678;2023-04-15T01:38:08;11.65;;;6.90;;
50900;SDS011;36879;51.416;6.678;2023-04-15T01:40:34;17.38;;;7.78;;
50900;SDS011;36879;51.416;6.678;2023-04-15T01:43:00;15.13;;;8.48;;
50900;SDS011;36879;51.416;6.678;2023-04-15T01:45:27;12.30;;;6.75;;
50900;SDS011;36879;51.416;6.678;2023-04-15T01:47:54;13.63;;;7.88;;
50900;SDS011;36879;51.416;6.678;2023-04-15T01:50:20;16.35;;;8.57;;
50900;SDS011;36879;51.416;6.678;2023-04-15T01:52:46;12.18;;;8.27;;
50900;SDS011;36879;51.416;6.678;2023-04-15T01:55:12;11.02;;;7.80;;
50900;SDS011;36879;51.416;6.678;2023-04-15T01:57:39;14.65;;;8.10;;
50900;SDS011;36879;51.416;6.678;2023-04-15T02:00:05;12.80;;;8.52;;
50900;SDS011;36879;51.416;6.678;2023-04-15T02:02:34;15.48;;;8.68;;
50900;SDS011;36879;51.416;6.678;2023-04-15T02:05:00;14.18;;;7.65;;
50900;SDS011;36879;51.416;6.678;2023-04-15T02:07:26;12.77;;;8.30;;
50900;SDS011;36879;51.416;6.678;2023-04-15T02:09:52;11.93;;;8.05;;
50900;SDS011;36879;51.416;6.678;2023-04-15T02:12:18;19.75;;;9.13;;
50900;SDS011;36879;51.416;6.678;2023-04-15T02:14:45;19.88;;;8.68;;
50900;SDS011;36879;51.416;6.678;2023-04-15T02:17:11;11.75;;;8.32;;
50900;SDS011;36879;51.416;6.678;2023-04-15T02:19:37;15.68;;;8.98;;
50900;SDS011;36879;51.416;6.678;2023-04-15T02:22:04;13.23;;;8.50;;
50900;SDS011;36879;51.416;6.678;2023-04-15T02:24:31;18.38;;;9.52;;
50900;SDS011;36879;51.416;6.678;2023-04-15T02:26:57;14.43;;;8.18;;
50900;SDS011;36879;51.416;6.678;2023-04-15T02:29:23;20.38;;;9.73;;
50900;SDS011;36879;51.416;6.678;2023-04-15T02:31:49;18.45;;;8.68;;
50900;SDS011;36879;51.416;6.678;2023-04-15T02:34:15;15.27;;;9.07;;
50900;SDS011;36879;51.416;6.678;2023-04-15T02:36:41;21.40;;;9.65;;
50900;SDS011;36879;51.416;6.678;2023-04-15T02:39:07;14.88;;;9.40;;
50900;SDS011;36879;51.416;6.678;2023-04-15T02:41:33;15.50;;;8.48;;
50900;SDS011;36879;51.416;6.678;2023-04-15T02:43:59;16.25;;;9.38;;
50900;SDS011;36879;51.416;6.678;2023-04-15T02:46:25;13.93;;;9.27;;
50900;SDS011;36879;51.416;6.678;2023-04-15T02:48:51;14.88;;;8.93;;
50900;SDS011;36879;51.416;6.678;2023-04-15T02:51:21;14.70;;;9.32;;
50900;SDS011;36879;51.416;6.678;2023-04-15T02:53:47;17.75;;;9.00;;
50900;SDS011;36879;51.416;6.678;2023-04-15T02:56:13;16.85;;;10.48;;
50900;SDS011;36879;51.416;6.678;2023-04-15T02:58:41;20.10;;;9.90;;
50900;SDS011;36879;51.416;6.678;2023-04-15T03:01:08;15.52;;;9.45;;
50900;SDS011;36879;51.416;6.678;2023-04-15T03:03:34;16.23;;;10.15;;
50900;SDS011;36879;51.416;6.678;2023-04-15T03:06:00;17.15;;;10.18;;
50900;SDS011;36879;51.416;6.678;2023-04-15T03:08:26;14.98;;;10.48;;
50900;SDS011;36879;51.416;6.678;2023-04-15T03:10:53;16.95;;;10.75;;
50900;SDS011;36879;51.416;6.678;2023-04-15T03:13:19;19.77;;;10.52;;
50900;SDS011;36879;51.416;6.678;2023-04-15T03:15:45;21.33;;;11.10;;
50900;SDS011;36879;51.416;6.678;2023-04-15T03:18:12;14.80;;;10.10;;
50900;SDS011;36879;51.416;6.678;2023-04-15T03:20:38;20.70;;;11.05;;
50900;SDS011;36879;51.416;6.678;2023-04-15T03:23:04;15.80;;;10.60;;
50900;SDS011;36879;51.416;6.678;2023-04-15T03:25:30;16.60;;;11.23;;
50900;SDS011;36879;51.416;6.678;2023-04-15T03:27:56;14.75;;;9.75;;
50900;SDS011;36879;51.416;6.678;2023-04-15T03:30:22;19.92;;;11.80;;
50900;SDS011;36879;51.416;6.678;2023-04-15T03:32:48;15.23;;;10.32;;
50900;SDS011;36879;51.416;6.678;2023-04-15T03:35:14;20.20;;;10.32;;
50900;SDS011;36879;51.416;6.678;2023-04-15T03:37:40;20.48;;;11.68;;
50900;SDS011;36879;51.416;6.678;2023-04-15T03:40:06;19.70;;;10.43;;
50900;SDS011;36879;51.416;6.678;2023-04-15T03:42:33;15.73;;;10.57;;
50900;SDS011;36879;51.416;6.678;2023-04-15T03:44:59;16.73;;;11.27;;
50900;SDS011;36879;51.416;6.678;2023-04-15T03:47:25;17.42;;;10.00;;
50900;SDS011;36879;51.416;6.678;2023-04-15T03:49:51;18.33;;;10.55;;
50900;SDS011;36879;51.416;6.678;2023-04-15T03:52:17;16.30;;;10.65;;
50900;SDS011;36879;51.416;6.678;2023-04-15T03:54:43;18.50;;;11.02;;
50900;SDS011;36879;51.416;6.678;2023-04-15T03:57:10;19.77;;;11.52;;
50900;SDS011;36879;51.416;6.678;2023-04-15T03:59:36;17.20;;;11.77;;
50900;SDS011;36879;51.416;6.678;2023-04-15T04:02:01;18.02;;;10.02;;
50900;SDS011;36879;51.416;6.678;2023-04-15T04:04:27;16.33;;;10.10;;
50900;SDS011;36879;51.416;6.678;2023-04-15T04:06:53;19.75;;;11.40;;
50900;SDS011;36879;51.416;6.678;2023-04-15T04:09:19;17.23;;;10.38;;
50900;SDS011;36879;51.416;6.678;2023-04-15T04:11:45;13.70;;;9.10;;
50900;SDS011;36879;51.416;6.678;2023-04-15T04:14:11;16.38;;;9.95;;
50900;SDS011;36879;51.416;6.678;2023-04-15T04:16:37;18.67;;;10.27;;
50900;SDS011;36879;51.416;6.678;2023-04-15T04:19:03;16.23;;;9.40;;
50900;SDS011;36879;51.416;6.678;2023-04-15T04:21:29;18.58;;;10.02;;
50900;SDS011;36879;51.416;6.678;2023-04-15T04:23:58;18.88;;;11.25;;
50900;SDS011;36879;51.416;6.678;2023-04-15T04:26:23;15.48;;;10.32;;
50900;SDS011;36879;51.416;6.678;2023-04-15T04:28:50;14.60;;;10.20;;
50900;SDS011;36879;51.416;6.678;2023-04-15T04:31:16;14.75;;;10.15;;
50900;SDS011;36879;51.416;6.678;2023-04-15T04:33:42;16.58;;;10.48;;
50900;SDS011;36879;51.416;6.678;2023-04-15T04:36:08;16.65;;;9.13;;
50900;SDS011;36879;51.416;6.678;2023-04-15T04:38:34;14.63;;;9.35;;
50900;SDS011;36879;51.416;6.678;2023-04-15T04:41:00;15.00;;;9.63;;
50900;SDS011;36879;51.416;6.678;2023-04-15T04:43:26;17.90;;;9.73;;
50900;SDS011;36879;51.416;6.678;2023-04-15T04:45:52;12.50;;;8.95;;
50900;SDS011;36879;51.416;6.678;2023-04-15T04:48:18;14.13;;;8.95;;
50900;SDS011;36879;51.416;6.678;2023-04-15T04:50:44;17.45;;;9.90;;
50900;SDS011;36879;51.416;6.678;2023-04-15T04:53:11;18.40;;;11.35;;
50900;SDS011;36879;51.416;6.678;2023-04-15T04:55:37;15.25;;;9.00;;
50900;SDS011;36879;51.416;6.678;2023-04-15T04:58:03;19.50;;;10.48;;
50900;SDS011;36879;51.416;6.678;2023-04-15T05:00:29;14.55;;;9.05;;
50900;SDS011;36879;51.416;6.678;2023-04-15T05:02:55;15.80;;;10.02;;
50900;SDS011;36879;51.416;6.678;2023-04-15T05:05:21;17.45;;;10.77;;
50900;SDS011;36879;51.416;6.678;2023-04-15T05:07:47;21.10;;;11.02;;
50900;SDS011;36879;51.416;6.678;2023-04-15T05:10:14;21.30;;;12.23;;
50900;SDS011;36879;51.416;6.678;2023-04-15T05:12:42;18.17;;;10.07;;
50900;SDS011;36879;51.416;6.678;2023-04-15T05:15:08;18.73;;;11.65;;
50900;SDS011;36879;51.416;6.678;2023-04-15T05:17:34;16.88;;;11.18;;
50900;SDS011;36879;51.416;6.678;2023-04-15T05:20:00;15.32;;;9.98;;
50900;SDS011;36879;51.416;6.678;2023-04-15T05:22:27;24.73;;;12.77;;
50900;SDS011;36879;51.416;6.678;2023-04-15T05:24:53;21.25;;;12.40;;
50900;SDS011;36879;51.416;6.678;2023-04-15T05:27:19;17.50;;;12.25;;
50900;SDS011;36879;51.416;6.678;2023-04-15T05:29:46;20.73;;;11.55;;
50900;SDS011;36879;51.416;6.678;2023-04-15T05:32:12;19.02;;;11.85;;
50900;SDS011;36879;51.416;6.678;2023-04-15T05:34:38;19.25;;;12.00;;
50900;SDS011;36879;51.416;6.678;2023-04-15T05:37:04;20.45;;;11.52;;
50900;SDS011;36879;51.416;6.678;2023-04-15T05:39:30;22.27;;;12.07;;
50900;SDS011;36879;51.416;6.678;2023-04-15T05:41:56;20.80;;;12.05;;
50900;SDS011;36879;51.416;6.678;2023-04-15T05:44:23;18.45;;;12.18;;
50900;SDS011;36879;51.416;6.678;2023-04-15T05:46:49;20.88;;;12.73;;
50900;SDS011;36879;51.416;6.678;2023-04-15T05:49:15;20.77;;;11.50;;
50900;SDS011;36879;51.416;6.678;2023-04-15T05:51:41;20.35;;;13.60;;
50900;SDS011;36879;51.416;6.678;2023-04-15T05:54:07;19.55;;;12.43;;
50900;SDS011;36879;51.416;6.678;2023-04-15T05:56:33;19.10;;;11.52;;
50900;SDS011;36879;51.416;6.678;2023-04-15T05:58:59;27.15;;;12.60;;
50900;SDS011;36879;51.416;6.678;2023-04-15T06:01:26;20.27;;;11.18;;
50900;SDS011;36879;51.416;6.678;2023-04-15T06:03:52;22.83;;;13.70;;
50900;SDS011;36879;51.416;6.678;2023-04-15T06:06:18;19.65;;;12.05;;
50900;SDS011;36879;51.416;6.678;2023-04-15T06:08:44;19.48;;;11.57;;
50900;SDS011;36879;51.416;6.678;2023-04-15T06:11:11;17.48;;;11.05;;
50900;SDS011;36879;51.416;6.678;2023-04-15T06:13:37;19.13;;;11.98;;
50900;SDS011;36879;51.416;6.678;2023-04-15T06:16:03;20.00;;;12.23;;
50900;SDS011;36879;51.416;6.678;2023-04-15T06:18:29;25.23;;;13.15;;
50900;SDS011;36879;51.416;6.678;2023-04-15T06:20:55;19.45;;;12.23;;
50900;SDS011;36879;51.416;6.678;2023-04-15T06:23:21;21.05;;;12.60;;
50900;SDS011;36879;51.416;6.678;2023-04-15T06:25:47;23.02;;;13.88;;
50900;SDS011;36879;51.416;6.678;2023-04-15T06:28:13;19.40;;;11.98;;
50900;SDS011;36879;51.416;6.678;2023-04-15T06:30:39;23.30;;;13.75;;
50900;SDS011;36879;51.416;6.678;2023-04-15T06:33:05;21.85;;;12.70;;
50900;SDS011;36879;51.416;6.678;2023-04-15T06:35:31;20.80;;;11.68;;
50900;SDS011;36879;51.416;6.678;2023-04-15T06:37:57;20.85;;;11.70;;
50900;SDS011;36879;51.416;6.678;2023-04-15T06:40:23;20.00;;;12.32;;
50900;SDS011;36879;51.416;6.678;2023-04-15T06:42:49;20.95;;;12.48;;
50900;SDS011;36879;51.416;6.678;2023-04-15T06:45:15;21.23;;;11.88;;
50900;SDS011;36879;51.416;6.678;2023-04-15T06:47:41;19.92;;;11.57;;
50900;SDS011;36879;51.416;6.678;2023-04-15T06:50:07;24.55;;;12.35;;
50900;SDS011;36879;51.416;6.678;2023-04-15T06:52:34;18.88;;;11.38;;
50900;SDS011;36879;51.416;6.678;2023-04-15T06:55:00;19.42;;;12.57;;
50900;SDS011;36879;51.416;6.678;2023-04-15T06:57:26;20.60;;;11.80;;
50900;SDS011;36879;51.416;6.678;2023-04-15T06:59:53;18.90;;;10.85;;
50900;SDS011;36879;51.416;6.678;2023-04-15T07:02:19;20.98;;;11.45;;
50900;SDS011;36879;51.416;6.678;2023-04-15T07:04:45;19.52;;;11.50;;
50900;SDS011;36879;51.416;6.678;2023-04-15T07:07:11;17.95;;;10.73;;
50900;SDS011;36879;51.416;6.678;2023-04-15T07:09:37;17.83;;;10.05;;
50900;SDS011;36879;51.416;6.678;2023-04-15T07:12:03;17.98;;;10.75;;
50900;SDS011;36879;51.416;6.678;2023-04-15T07:14:29;17.73;;;9.25;;
50900;SDS011;36879;51.416;6.678;2023-04-15T07:16:55;16.92;;;9.18;;
50900;SDS011;36879;51.416;6.678;2023-04-15T07:19:21;14.50;;;9.50;;
50900;SDS011;36879;51.416;6.678;2023-04-15T07:21:48;12.57;;;8.57;;
50900;SDS011;36879;51.416;6.678;2023-04-15T07:24:14;13.43;;;8.10;;
50900;SDS011;36879;51.416;6.678;2023-04-15T07:26:42;14.50;;;8.40;;
50900;SDS011;36879;51.416;6.678;2023-04-15T07:29:09;13.63;;;8.40;;
50900;SDS011;36879;51.416;6.678;2023-04-15T07:31:35;14.75;;;8.38;;
50900;SDS011;36879;51.416;6.678;2023-04-15T07:34:01;10.90;;;6.20;;
50900;SDS011;36879;51.416;6.678;2023-04-15T07:36:27;7.22;;;4.45;;
50900;SDS011;36879;51.416;6.678;2023-04-15T07:38:53;7.47;;;4.93;;
50900;SDS011;36879;51.416;6.678;2023-04-15T07:41:20;6.82;;;4.35;;
50900;SDS011;36879;51.416;6.678;2023-04-15T07:43:46;8.77;;;4.78;;
50900;SDS011;36879;51.416;6.678;2023-04-15T07:46:13;6.43;;;4.40;;
50900;SDS011;36879;51.416;6.678;2023-04-15T07:48:39;8.27;;;4.40;;
50900;SDS011;36879;51.416;6.678;2023-04-15T07:51:05;5.60;;;3.25;;
50900;SDS011;36879;51.416;6.678;2023-04-15T07:53:31;5.95;;;2.72;;
50900;SDS011;36879;51.416;6.678;2023-04-15T07:55:57;5.38;;;2.53;;
50900;SDS011;36879;51.416;6.678;2023-04-15T07:58:23;6.93;;;4.13;;
50900;SDS011;36879;51.416;6.678;2023-04-15T08:00:50;7.13;;;3.30;;
50900;SDS011;36879;51.416;6.678;2023-04-15T08:03:16;4.18;;;2.78;;
50900;SDS011;36879;51.416;6.678;2023-04-15T08:05:42;5.25;;;3.28;;
50900;SDS011;36879;51.416;6.678;2023-04-15T08:08:08;5.72;;;3.63;;
50900;SDS011;36879;51.416;6.678;2023-04-15T08:10:34;5.63;;;3.50;;
50900;SDS011;36879;51.416;6.678;2023-04-15T08:13:00;9.25;;;4.63;;
50900;SDS011;36879;51.416;6.678;2023-04-15T08:15:26;7.10;;;4.30;;
50900;SDS011;36879;51.416;6.678;2023-04-15T08:17:52;10.15;;;5.18;;
50900;SDS011;36879;51.416;6.678;2023-04-15T08:20:18;7.90;;;3.97;;
50900;SDS011;36879;51.416;6.678;2023-04-15T08:22:44;4.95;;;3.20;;
50900;SDS011;36879;51.416;6.678;2023-04-15T08:25:15;5.38;;;3.53;;
50900;SDS011;36879;51.416;6.678;2023-04-15T08:27:41;7.85;;;3.10;;
50900;SDS011;36879;51.416;6.678;2023-04-15T08:30:07;4.95;;;2.72;;
50900;SDS011;36879;51.416;6.678;2023-04-15T08:32:34;6.65;;;3.13;;
50900;SDS011;36879;51.416;6.678;2023-04-15T08:35:00;7.53;;;3.45;;
50900;SDS011;36879;51.416;6.678;2023-04-15T08:37:26;5.82;;;3.70;;
50900;SDS011;36879;51.416;6.678;2023-04-15T08:39:52;6.00;;;3.13;;
50900;SDS011;36879;51.416;6.678;2023-04-15T08:42:21;5.93;;;2.45;;
50900;SDS011;36879;51.416;6.678;2023-04-15T08:44:48;4.88;;;2.78;;
50900;SDS011;36879;51.416;6.678;2023-04-15T08:47:14;6.05;;;3.28;;
50900;SDS011;36879;51.416;6.678;2023-04-15T08:49:45;5.18;;;2.80;;
50900;SDS011;36879;51.416;6.678;2023-04-15T08:52:17;4.50;;;2.58;;
50900;SDS011;36879;51.416;6.678;2023-04-15T08:54:44;9.90;;;2.70;;
50900;SDS011;36879;51.416;6.678;2023-04-15T08:57:10;4.50;;;2.42;;
50900;SDS011;36879;51.416;6.678;2023-04-15T08:59:37;4.75;;;2.60;;
50900;SDS011;36879;51.416;6.678;2023-04-15T09:02:04;5.57;;;2.33;;
50900;SDS011;36879;51.416;6.678;2023-04-15T09:04:30;5.75;;;2.20;;
50900;SDS011;36879;51.416;6.678;2023-04-15T09:06:56;3.55;;;2.30;;
50900;SDS011;36879;51.416;6.678;2023-04-15T09:09:22;4.18;;;2.45;;
50900;SDS011;36879;51.416;6.678;2023-04-15T09:11:48;4.18;;;2.70;;
50900;SDS011;36879;51.416;6.678;2023-04-15T09:14:15;4.90;;;2.70;;
50900;SDS011;36879;51.416;6.678;2023-04-15T09:16:57;4.63;;;2.83;;
50900;SDS011;36879;51.416;6.678;2023-04-15T09:19:24;3.90;;;2.33;;
50900;SDS011;36879;51.416;6.678;2023-04-15T09:21:51;4.68;;;2.60;;
50900;SDS011;36879;51.416;6.678;2023-04-15T09:24:18;5.57;;;2.45;;
50900;SDS011;36879;51.416;6.678;2023-04-15T09:26:44;5.80;;;2.78;;
50900;SDS011;36879;51.416;6.678;2023-04-15T09:29:10;3.72;;;2.47;;
50900;SDS011;36879;51.416;6.678;2023-04-15T09:31:40;4.00;;;2.30;;
50900;SDS011;36879;51.416;6.678;2023-04-15T09:34:07;4.55;;;2.55;;
50900;SDS011;36879;51.416;6.678;2023-04-15T09:39:11;6.03;;;3.22;;
50900;SDS011;36879;51.416;6.678;2023-04-15T09:41:37;4.80;;;2.65;;
50900;SDS011;36879;51.416;6.678;2023-04-15T09:44:04;8.48;;;3.35;;
50900;SDS011;36879;51.416;6.678;2023-04-15T09:46:40;5.63;;;3.78;;
50900;SDS011;36879;51.416;6.678;2023-04-15T09:49:07;5.97;;;2.92;;
50900;SDS011;36879;51.416;6.678;2023-04-15T09:51:34;6.22;;;3.08;;
50900;SDS011;36879;51.416;6.678;2023-04-15T09:54:00;5.72;;;3.33;;
50900;SDS011;36879;51.416;6.678;2023-04-15T09:56:36;6.18;;;3.13;;
50900;SDS011;36879;51.416;6.678;2023-04-15T09:59:05;8.10;;;3.38;;
50900;SDS011;36879;51.416;6.678;2023-04-15T10:01:31;6.20;;;3.13;;
50900;SDS011;36879;51.416;6.678;2023-04-15T10:03:57;10.05;;;3.88;;
50900;SDS011;36879;51.416;6.678;2023-04-15T10:06:24;4.43;;;2.85;;
50900;SDS011;36879;51.416;6.678;2023-04-15T10:08:51;5.53;;;3.63;;
50900;SDS011;36879;51.416;6.678;2023-04-15T10:11:19;5.75;;;3.92;;
50900;SDS011;36879;51.416;6.678;2023-04-15T10:13:48;4.03;;;2.67;;
50900;SDS011;36879;51.416;6.678;2023-04-15T10:16:14;5.32;;;3.10;;
50900;SDS011;36879;51.416;6.678;2023-04-15T10:18:44;5.03;;;3.25;;
50900;SDS011;36879;51.416;6.678;2023-04-15T10:21:11;5.53;;;3.20;;
50900;SDS011;36879;51.416;6.678;2023-04-15T10:23:42;5.88;;;3.80;;
50900;SDS011;36879;51.416;6.678;2023-04-15T10:26:08;4.20;;;3.00;;
50900;SDS011;36879;51.416;6.678;2023-04-15T10:28:36;4.03;;;2.70;;
50900;SDS011;36879;51.416;6.678;2023-04-15T10:31:02;6.57;;;3.53;;
50900;SDS011;36879;51.416;6.678;2023-04-15T10:33:29;4.60;;;2.75;;
50900;SDS011;36879;51.416;6.678;2023-04-15T10:35:55;5.55;;;3.38;;
50900;SDS011;36879;51.416;6.678;2023-04-15T10:43:38;5.63;;;3.78;;
50900;SDS011;36879;51.416;6.678;2023-04-15T10:46:05;5.80;;;3.45;;
50900;SDS011;36879;51.416;6.678;2023-04-15T10:48:31;4.47;;;3.00;;
50900;SDS011;36879;51.416;6.678;2023-04-15T10:50:59;4.07;;;2.58;;
50900;SDS011;36879;51.416;6.678;2023-04-15T10:53:29;4.00;;;2.45;;
50900;SDS011;36879;51.416;6.678;2023-04-15T10:55:56;5.57;;;2.97;;
50900;SDS011;36879;51.416;6.678;2023-04-15T10:58:25;4.60;;;2.75;;
50900;SDS011;36879;51.416;6.678;2023-04-15T11:01:05;5.95;;;3.10;;
50900;SDS011;36879;51.416;6.678;2023-04-15T11:03:36;4.68;;;2.38;;
50900;SDS011;36879;51.416;6.678;2023-04-15T11:06:02;6.10;;;3.08;;
50900;SDS011;36879;51.416;6.678;2023-04-15T11:11:13;4.07;;;2.95;;
50900;SDS011;36879;51.416;6.678;2023-04-15T11:13:46;5.53;;;3.15;;
50900;SDS011;36879;51.416;6.678;2023-04-15T11:16:12;5.25;;;3.25;;
50900;SDS011;36879;51.416;6.678;2023-04-15T11:18:38;5.97;;;3.30;;
50900;SDS011;36879;51.416;6.678;2023-04-15T11:21:05;6.90;;;3.45;;
50900;SDS011;36879;51.416;6.678;2023-04-15T11:23:36;6.22;;;3.58;;
50900;SDS011;36879;51.416;6.678;2023-04-15T11:26:03;5.20;;;2.97;;
50900;SDS011;36879;51.416;6.678;2023-04-15T11:28:31;5.38;;;3.00;;
50900;SDS011;36879;51.416;6.678;2023-04-15T11:30:57;4.95;;;2.88;;
50900;SDS011;36879;51.416;6.678;2023-04-15T11:33:24;4.32;;;2.97;;
50900;SDS011;36879;51.416;6.678;2023-04-15T11:35:51;4.93;;;2.80;;
50900;SDS011;36879;51.416;6.678;2023-04-15T11:38:18;6.22;;;2.53;;
50900;SDS011;36879;51.416;6.678;2023-04-15T11:40:44;4.95;;;3.33;;
50900;SDS011;36879;51.416;6.678;2023-04-15T11:45:37;4.43;;;2.85;;
50900;SDS011;36879;51.416;6.678;2023-04-15T11:48:09;3.45;;;2.17;;
50900;SDS011;36879;51.416;6.678;2023-04-15T11:50:36;4.22;;;2.55;;
50900;SDS011;36879;51.416;6.678;2023-04-15T11:53:05;3.78;;;2.35;;
50900;SDS011;36879;51.416;6.678;2023-04-15T11:55:40;6.25;;;2.50;;
50900;SDS011;36879;51.416;6.678;2023-04-15T12:03:11;3.72;;;2.35;;
50900;SDS011;36879;51.416;6.678;2023-04-15T12:06:01;3.67;;;2.25;;
50900;SDS011;36879;51.416;6.678;2023-04-15T12:08:23;4.57;;;2.40;;
50900;SDS011;36879;51.416;6.678;2023-04-15T12:10:49;4.80;;;2.58;;
50900;SDS011;36879;51.416;6.678;2023-04-15T12:13:15;4.18;;;3.17;;
50900;SDS011;36879;51.416;6.678;2023-04-15T12:15:41;4.07;;;2.33;;
50900;SDS011;36879;51.416;6.678;2023-04-15T12:18:15;3.83;;;2.60;;
50900;SDS011;36879;51.416;6.678;2023-04-15T12:20:44;5.72;;;3.05;;
50900;SDS011;36879;51.416;6.678;2023-04-15T12:23:11;4.45;;;2.25;;
50900;SDS011;36879;51.416;6.678;2023-04-15T12:25:37;3.67;;;2.15;;
50900;SDS011;36879;51.416;6.678;2023-04-15T12:28:09;4.55;;;2.38;;
50900;SDS011;36879;51.416;6.678;2023-04-15T12:30:35;5.07;;;2.30;;
50900;SDS011;36879;51.416;6.678;2023-04-15T12:33:02;4.22;;;2.50;;
50900;SDS011;36879;51.416;6.678;2023-04-15T12:35:28;3.50;;;2.10;;
50900;SDS011;36879;51.416;6.678;2023-04-15T12:37:54;5.38;;;2.20;;
50900;SDS011;36879;51.416;6.678;2023-04-15T12:40:20;5.55;;;3.05;;
50900;SDS011;36879;51.416;6.678;2023-04-15T12:42:46;4.00;;;2.28;;
50900;SDS011;36879;51.416;6.678;2023-04-15T12:45:12;5.78;;;2.65;;
50900;SDS011;36879;51.416;6.678;2023-04-15T12:47:38;3.45;;;2.08;;
50900;SDS011;36879;51.416;6.678;2023-04-15T12:50:04;3.30;;;1.80;;
50900;SDS011;36879;51.416;6.678;2023-04-15T12:52:30;3.72;;;2.25;;
50900;SDS011;36879;51.416;6.678;2023-04-15T12:54:56;3.45;;;2.22;;
50900;SDS011;36879;51.416;6.678;2023-04-15T12:57:22;4.20;;;2.72;;
50900;SDS011;36879;51.416;6.678;2023-04-15T12:59:48;4.30;;;2.50;;
50900;SDS011;36879;51.416;6.678;2023-04-15T13:02:15;4.85;;;2.70;;
50900;SDS011;36879;51.416;6.678;2023-04-15T13:04:40;4.18;;;3.03;;
50900;SDS011;36879;51.416;6.678;2023-04-15T13:07:06;4.70;;;2.20;;
50900;SDS011;36879;51.416;6.678;2023-04-15T13:09:33;7.00;;;3.20;;
50900;SDS011;36879;51.416;6.678;2023-04-15T13:11:59;5.40;;;2.63;;
50900;SDS011;36879;51.416;6.678;2023-04-15T13:14:25;6.38;;;3.30;;
50900;SDS011;36879;51.416;6.678;2023-04-15T13:16:51;4.50;;;2.38;;
50900;SDS011;36879;51.416;6.678;2023-04-15T13:19:17;5.45;;;3.08;;
50900;SDS011;36879;51.416;6.678;2023-04-15T13:21:43;5.28;;;2.72;;
50900;SDS011;36879;51.416;6.678;2023-04-15T13:24:10;8.82;;;2.67;;
50900;SDS011;36879;51.416;6.678;2023-04-15T13:26:36;4.45;;;2.45;;
50900;SDS011;36879;51.416;6.678;2023-04-15T13:29:01;3.67;;;2.00;;
50900;SDS011;36879;51.416;6.678;2023-04-15T13:31:28;3.63;;;2.28;;
50900;SDS011;36879;51.416;6.678;2023-04-15T13:33:54;5.65;;;2.08;;
50900;SDS011;36879;51.416;6.678;2023-04-15T13:36:20;4.07;;;1.98;;
50900;SDS011;36879;51.416;6.678;2023-04-15T13:38:46;3.67;;;1.48;;
50900;SDS011;36879;51.416;6.678;2023-04-15T13:41:12;3.50;;;1.70;;
50900;SDS011;36879;51.416;6.678;2023-04-15T13:43:38;3.65;;;2.13;;
50900;SDS011;36879;51.416;6.678;2023-04-15T13:46:04;4.20;;;2.70;;
50900;SDS011;36879;51.416;6.678;2023-04-15T13:48:30;4.38;;;2.00;;
50900;SDS011;36879;51.416;6.678;2023-04-15T13:50:56;3.28;;;1.92;;
50900;SDS011;36879;51.416;6.678;2023-04-15T13:53:22;3.50;;;2.05;;
50900;SDS011;36879;51.416;6.678;2023-04-15T13:55:48;5.03;;;2.50;;
50900;SDS011;36879;51.416;6.678;2023-04-15T13:58:14;5.07;;;3.00;;
50900;SDS011;36879;51.416;6.678;2023-04-15T14:00:40;5.72;;;2.20;;
50900;SDS011;36879;51.416;6.678;2023-04-15T14:03:06;3.97;;;2.13;;
50900;SDS011;36879;51.416;6.678;2023-04-15T14:05:32;3.10;;;1.98;;
50900;SDS011;36879;51.416;6.678;2023-04-15T14:07:58;4.43;;;1.83;;
50900;SDS011;36879;51.416;6.678;2023-04-15T14:10:24;4.72;;;2.10;;
50900;SDS011;36879;51.416;6.678;2023-04-15T14:12:50;3.35;;;2.00;;
50900;SDS011;36879;51.416;6.678;2023-04-15T14:15:16;4.32;;;2.00;;
50900;SDS011;36879;51.416;6.678;2023-04-15T14:17:42;5.97;;;1.90;;
50900;SDS011;36879;51.416;6.678;2023-04-15T14:20:09;4.63;;;1.92;;
50900;SDS011;36879;51.416;6.678;2023-04-15T14:22:35;4.25;;;1.40;;
50900;SDS011;36879;51.416;6.678;2023-04-15T14:25:01;3.97;;;1.73;;
50900;SDS011;36879;51.416;6.678;2023-04-15T14:27:27;4.07;;;1.75;;
50900;SDS011;36879;51.416;6.678;2023-04-15T14:29:53;2.92;;;1.70;;
50900;SDS011;36879;51.416;6.678;2023-04-15T14:32:19;3.85;;;2.03;;
50900;SDS011;36879;51.416;6.678;2023-04-15T14:34:45;3.50;;;1.88;;
50900;SDS011;36879;51.416;6.678;2023-04-15T14:37:11;3.40;;;1.83;;
50900;SDS011;36879;51.416;6.678;2023-04-15T14:39:37;3.80;;;1.70;;
50900;SDS011;36879;51.416;6.678;2023-04-15T14:42:03;3.55;;;1.70;;
50900;SDS011;36879;51.416;6.678;2023-04-15T14:44:29;3.50;;;1.88;;
50900;SDS011;36879;51.416;6.678;2023-04-15T14:46:55;3.05;;;1.55;;
50900;SDS011;36879;51.416;6.678;2023-04-15T14:49:21;3.38;;;1.63;;
50900;SDS011;36879;51.416;6.678;2023-04-15T14:51:47;4.05;;;1.83;;